sensor_id;sensor_type;location;lat;lon;timestamp;P1;durP1;ratioP1;P2;durP2;ratioP2
36303;SDS011;22335;49.800;8.596;2023-06-10T00:00:03;11.20;;;10.10;;
36303;SDS011;22335;49.800;8.596;2023-06-10T00:06:56;11.98;;;10.98;;
36303;SDS011;22335;49.800;8.596;2023-06-10T00:13:40;10.80;;;9.90;;
36303;SDS011;22335;49.800;8.596;2023-06-10T00:20:25;11.38;;;10.27;;
36303;SDS011;22335;49.800;8.596;2023-06-10T00:27:08;11.53;;;10.33;;
36303;SDS011;22335;49.800;8.596;2023-06-10T00:33:55;11.02;;;10.13;;
36303;SDS011;22335;49.800;8.596;2023-06-10T00:40:41;11.80;;;10.65;;
36303;SDS011;22335;49.800;8.596;2023-06-10T00:47:25;11.32;;;10.43;;
36303;SDS011;22335;49.800;8.596;2023-06-10T00:54:09;10.88;;;9.63;;
36303;SDS011;22335;49.800;8.596;2023-06-10T01:07:43;11.55;;;10.55;;
36303;SDS011;22335;49.800;8.596;2023-06-10T01:14:37;11.00;;;10.00;;
36303;SDS011;22335;49.800;8.596;2023-06-10T01:21:27;11.13;;;10.00;;
36303;SDS011;22335;49.800;8.596;2023-06-10T01:28:14;12.63;;;10.60;;
36303;SDS011;22335;49.800;8.596;2023-06-10T01:35:04;11.02;;;10.20;;
36303;SDS011;22335;49.800;8.596;2023-06-10T01:41:53;11.63;;;10.57;;
36303;SDS011;22335;49.800;8.596;2023-06-10T01:48:37;13.30;;;10.95;;
36303;SDS011;22335;49.800;8.596;2023-06-10T01:55:22;11.45;;;10.52;;
36303;SDS011;22335;49.800;8.596;2023-06-10T02:02:07;11.95;;;10.85;;
36303;SDS011;22335;49.800;8.596;2023-06-10T02:08:52;10.88;;;9.88;;
36303;SDS011;22335;49.800;8.596;2023-06-10T02:15:35;12.48;;;11.20;;
36303;SDS011;22335;49.800;8.596;2023-06-10T02:22:21;11.95;;;10.82;;
36303;SDS011;22335;49.800;8.596;2023-06-10T02:29:06;12.10;;;11.00;;
36303;SDS011;22335;49.800;8.596;2023-06-10T02:35:49;12.40;;;11.20;;
36303;SDS011;22335;49.800;8.596;2023-06-10T02:42:35;11.32;;;10.43;;
36303;SDS011;22335;49.800;8.596;2023-06-10T03:04:47;12.23;;;11.23;;
36303;SDS011;22335;49.800;8.596;2023-06-10T03:11:33;12.15;;;11.02;;
36303;SDS011;22335;49.800;8.596;2023-06-10T03:18:17;13.05;;;11.75;;
36303;SDS011;22335;49.800;8.596;2023-06-10T03:25:03;12.27;;;11.23;;
36303;SDS011;22335;49.800;8.596;2023-06-10T03:31:53;12.50;;;11.40;;
36303;SDS011;22335;49.800;8.596;2023-06-10T03:38:37;12.73;;;11.63;;
36303;SDS011;22335;49.800;8.596;2023-06-10T03:45:23;12.87;;;11.77;;
36303;SDS011;22335;49.800;8.596;2023-06-10T03:52:10;12.25;;;11.25;;
36303;SDS011;22335;49.800;8.596;2023-06-10T03:58:54;14.40;;;13.10;;
36303;SDS011;22335;49.800;8.596;2023-06-10T04:05:39;13.50;;;12.20;;
36303;SDS011;22335;49.800;8.596;2023-06-10T04:12:23;14.25;;;12.95;;
36303;SDS011;22335;49.800;8.596;2023-06-10T04:19:07;35.33;;;31.63;;
36303;SDS011;22335;49.800;8.596;2023-06-10T04:25:53;18.38;;;16.83;;
36303;SDS011;22335;49.800;8.596;2023-06-10T04:32:39;18.88;;;17.15;;
36303;SDS011;22335;49.800;8.596;2023-06-10T04:39:28;18.95;;;17.20;;
36303;SDS011;22335;49.800;8.596;2023-06-10T04:46:13;13.13;;;12.00;;
36303;SDS011;22335;49.800;8.596;2023-06-10T04:52:58;13.65;;;12.40;;
36303;SDS011;22335;49.800;8.596;2023-06-10T04:59:45;13.43;;;12.10;;
36303;SDS011;22335;49.800;8.596;2023-06-10T05:06:30;13.77;;;12.32;;
36303;SDS011;22335;49.800;8.596;2023-06-10T05:13:13;12.80;;;11.70;;
36303;SDS011;22335;49.800;8.596;2023-06-10T05:19:59;12.18;;;11.18;;
36303;SDS011;22335;49.800;8.596;2023-06-10T05:26:44;12.88;;;11.68;;
36303;SDS011;22335;49.800;8.596;2023-06-10T05:33:28;12.48;;;11.38;;
36303;SDS011;22335;49.800;8.596;2023-06-10T05:40:12;11.95;;;10.90;;
36303;SDS011;22335;49.800;8.596;2023-06-10T05:46:57;11.13;;;10.23;;
36303;SDS011;22335;49.800;8.596;2023-06-10T05:53:40;11.63;;;10.30;;
36303;SDS011;22335;49.800;8.596;2023-06-10T06:00:24;12.32;;;10.77;;
36303;SDS011;22335;49.800;8.596;2023-06-10T06:07:09;10.68;;;9.77;;
36303;SDS011;22335;49.800;8.596;2023-06-10T06:13:53;11.15;;;10.02;;
36303;SDS011;22335;49.800;8.596;2023-06-10T06:20:37;11.60;;;10.50;;
36303;SDS011;22335;49.800;8.596;2023-06-10T06:27:22;11.50;;;10.50;;
36303;SDS011;22335;49.800;8.596;2023-06-10T06:34:05;11.40;;;10.40;;
36303;SDS011;22335;49.800;8.596;2023-06-10T06:40:49;10.65;;;9.73;;
36303;SDS011;22335;49.800;8.596;2023-06-10T06:47:33;11.48;;;10.15;;
36303;SDS011;22335;49.800;8.596;2023-06-10T06:54:17;11.13;;;10.03;;
36303;SDS011;22335;49.800;8.596;2023-06-10T07:01:01;10.50;;;9.60;;
36303;SDS011;22335;49.800;8.596;2023-06-10T07:07:45;10.68;;;9.68;;
36303;SDS011;22335;49.800;8.596;2023-06-10T07:14:29;10.68;;;9.82;;
36303;SDS011;22335;49.800;8.596;2023-06-10T07:21:13;9.93;;;9.13;;
36303;SDS011;22335;49.800;8.596;2023-06-10T07:27:58;10.93;;;9.43;;
36303;SDS011;22335;49.800;8.596;2023-06-10T07:34:41;10.10;;;9.20;;
36303;SDS011;22335;49.800;8.596;2023-06-10T07:41:25;9.90;;;9.00;;
36303;SDS011;22335;49.800;8.596;2023-06-10T07:48:10;9.95;;;9.05;;
36303;SDS011;22335;49.800;8.596;2023-06-10T07:54:53;10.70;;;9.05;;
36303;SDS011;22335;49.800;8.596;2023-06-10T08:01:37;9.70;;;8.80;;
36303;SDS011;22335;49.800;8.596;2023-06-10T08:08:22;10.25;;;9.35;;
36303;SDS011;22335;49.800;8.596;2023-06-10T08:21:51;10.05;;;9.25;;
36303;SDS011;22335;49.800;8.596;2023-06-10T08:28:36;9.13;;;8.35;;
36303;SDS011;22335;49.800;8.596;2023-06-10T08:35:19;9.75;;;8.85;;
36303;SDS011;22335;49.800;8.596;2023-06-10T08:42:05;10.32;;;9.43;;
36303;SDS011;22335;49.800;8.596;2023-06-10T08:48:59;10.70;;;9.80;;
36303;SDS011;22335;49.800;8.596;2023-06-10T08:55:49;11.15;;;10.02;;
36303;SDS011;22335;49.800;8.596;2023-06-10T09:02:34;10.50;;;9.52;;
36303;SDS011;22335;49.800;8.596;2023-06-10T09:09:20;11.07;;;10.15;;
36303;SDS011;22335;49.800;8.596;2023-06-10T09:16:07;10.15;;;9.15;;
36303;SDS011;22335;49.800;8.596;2023-06-10T09:22:53;11.32;;;10.43;;
36303;SDS011;22335;49.800;8.596;2023-06-10T09:29:48;10.43;;;9.53;;
36303;SDS011;22335;49.800;8.596;2023-06-10T09:36:36;10.15;;;9.30;;
36303;SDS011;22335;49.800;8.596;2023-06-10T09:50:06;9.75;;;8.80;;
36303;SDS011;22335;49.800;8.596;2023-06-10T09:56:51;8.27;;;7.47;;
36303;SDS011;22335;49.800;8.596;2023-06-10T10:03:42;9.60;;;8.80;;
36303;SDS011;22335;49.800;8.596;2023-06-10T10:10:29;10.32;;;9.00;;
36303;SDS011;22335;49.800;8.596;2023-06-10T10:17:13;9.35;;;8.38;;
36303;SDS011;22335;49.800;8.596;2023-06-10T10:24:00;9.15;;;8.35;;
36303;SDS011;22335;49.800;8.596;2023-06-10T10:30:52;8.73;;;7.70;;
36303;SDS011;22335;49.800;8.596;2023-06-10T10:37:38;8.70;;;7.97;;
36303;SDS011;22335;49.800;8.596;2023-06-10T10:44:22;8.82;;;7.65;;
36303;SDS011;22335;49.800;8.596;2023-06-10T10:51:08;7.80;;;7.15;;
36303;SDS011;22335;49.800;8.596;2023-06-10T10:57:54;7.40;;;6.72;;
36303;SDS011;22335;49.800;8.596;2023-06-10T11:04:42;6.35;;;5.85;;
36303;SDS011;22335;49.800;8.596;2023-06-10T11:11:29;6.72;;;6.13;;
36303;SDS011;22335;49.800;8.596;2023-06-10T11:18:20;6.53;;;5.97;;
36303;SDS011;22335;49.800;8.596;2023-06-10T11:25:07;6.78;;;6.25;;
36303;SDS011;22335;49.800;8.596;2023-06-10T11:31:58;5.90;;;5.40;;
36303;SDS011;22335;49.800;8.596;2023-06-10T11:38:41;7.40;;;5.55;;
36303;SDS011;22335;49.800;8.596;2023-06-10T11:45:27;5.85;;;5.38;;
36303;SDS011;22335;49.800;8.596;2023-06-10T11:52:12;6.93;;;6.33;;
36303;SDS011;22335;49.800;8.596;2023-06-10T11:58:57;5.72;;;5.22;;
36303;SDS011;22335;49.800;8.596;2023-06-10T12:05:55;6.88;;;5.68;;
36303;SDS011;22335;49.800;8.596;2023-06-10T12:12:41;6.95;;;6.38;;
36303;SDS011;22335;49.800;8.596;2023-06-10T12:19:24;6.53;;;6.03;;
36303;SDS011;22335;49.800;8.596;2023-06-10T12:26:08;6.40;;;5.90;;
36303;SDS011;22335;49.800;8.596;2023-06-10T12:32:53;6.50;;;5.90;;
36303;SDS011;22335;49.800;8.596;2023-06-10T12:39:38;6.20;;;5.60;;
36303;SDS011;22335;49.800;8.596;2023-06-10T12:46:22;6.63;;;6.13;;
36303;SDS011;22335;49.800;8.596;2023-06-10T12:53:07;6.43;;;5.93;;
36303;SDS011;22335;49.800;8.596;2023-06-10T12:59:52;6.25;;;5.75;;
36303;SDS011;22335;49.800;8.596;2023-06-10T13:06:39;6.22;;;5.72;;
36303;SDS011;22335;49.800;8.596;2023-06-10T13:13:26;7.22;;;6.45;;
36303;SDS011;22335;49.800;8.596;2023-06-10T13:20:10;7.07;;;6.40;;
36303;SDS011;22335;49.800;8.596;2023-06-10T13:26:54;6.53;;;5.93;;
36303;SDS011;22335;49.800;8.596;2023-06-10T13:33:39;6.82;;;6.25;;
36303;SDS011;22335;49.800;8.596;2023-06-10T13:40:24;6.82;;;5.97;;
36303;SDS011;22335;49.800;8.596;2023-06-10T13:47:08;6.17;;;5.57;;
36303;SDS011;22335;49.800;8.596;2023-06-10T13:53:53;7.38;;;5.70;;
36303;SDS011;22335;49.800;8.596;2023-06-10T14:00:36;6.95;;;6.25;;
36303;SDS011;22335;49.800;8.596;2023-06-10T14:14:05;6.53;;;5.93;;
36303;SDS011;22335;49.800;8.596;2023-06-10T14:20:49;5.90;;;5.50;;
36303;SDS011;22335;49.800;8.596;2023-06-10T14:27:32;7.47;;;6.77;;
36303;SDS011;22335;49.800;8.596;2023-06-10T14:34:17;6.47;;;5.83;;
36303;SDS011;22335;49.800;8.596;2023-06-10T14:41:01;7.00;;;6.40;;
36303;SDS011;22335;49.800;8.596;2023-06-10T14:47:44;6.50;;;5.87;;
36303;SDS011;22335;49.800;8.596;2023-06-10T15:07:56;7.05;;;6.45;;
36303;SDS011;22335;49.800;8.596;2023-06-10T15:14:41;6.63;;;6.03;;
36303;SDS011;22335;49.800;8.596;2023-06-10T15:21:24;6.50;;;5.90;;
36303;SDS011;22335;49.800;8.596;2023-06-10T15:34:53;5.72;;;5.18;;
36303;SDS011;22335;49.800;8.596;2023-06-10T15:41:38;5.88;;;5.38;;
36303;SDS011;22335;49.800;8.596;2023-06-10T15:48:21;6.00;;;5.50;;
36303;SDS011;22335;49.800;8.596;2023-06-10T15:55:06;5.80;;;5.30;;
36303;SDS011;22335;49.800;8.596;2023-06-10T16:01:50;8.15;;;5.10;;
36303;SDS011;22335;49.800;8.596;2023-06-10T16:08:34;5.83;;;5.33;;
36303;SDS011;22335;49.800;8.596;2023-06-10T16:15:19;5.68;;;5.18;;
36303;SDS011;22335;49.800;8.596;2023-06-10T16:22:03;6.13;;;5.20;;
36303;SDS011;22335;49.800;8.596;2023-06-10T16:28:47;6.00;;;5.30;;
36303;SDS011;22335;49.800;8.596;2023-06-10T16:35:32;9.35;;;5.55;;
36303;SDS011;22335;49.800;8.596;2023-06-10T16:42:16;6.40;;;5.80;;
36303;SDS011;22335;49.800;8.596;2023-06-10T16:48:59;5.80;;;5.40;;
36303;SDS011;22335;49.800;8.596;2023-06-10T16:55:44;6.22;;;5.53;;
36303;SDS011;22335;49.800;8.596;2023-06-10T17:02:28;6.85;;;5.53;;
36303;SDS011;22335;49.800;8.596;2023-06-10T17:09:13;9.43;;;6.30;;
36303;SDS011;22335;49.800;8.596;2023-06-10T17:15:59;7.90;;;5.63;;
36303;SDS011;22335;49.800;8.596;2023-06-10T17:22:42;5.10;;;4.70;;
36303;SDS011;22335;49.800;8.596;2023-06-10T17:29:26;6.22;;;4.50;;
36303;SDS011;22335;49.800;8.596;2023-06-10T17:36:10;5.67;;;5.17;;
36303;SDS011;22335;49.800;8.596;2023-06-10T17:42:54;6.15;;;5.60;;
36303;SDS011;22335;49.800;8.596;2023-06-10T17:49:38;5.97;;;5.37;;
36303;SDS011;22335;49.800;8.596;2023-06-10T17:56:22;6.13;;;5.57;;
36303;SDS011;22335;49.800;8.596;2023-06-10T18:03:07;6.30;;;5.65;;
36303;SDS011;22335;49.800;8.596;2023-06-10T18:09:50;6.27;;;5.87;;
36303;SDS011;22335;49.800;8.596;2023-06-10T18:16:35;6.82;;;6.25;;
36303;SDS011;22335;49.800;8.596;2023-06-10T18:23:18;7.07;;;6.43;;
36303;SDS011;22335;49.800;8.596;2023-06-10T18:30:02;8.20;;;7.60;;
36303;SDS011;22335;49.800;8.596;2023-06-10T18:36:48;8.00;;;7.40;;
36303;SDS011;22335;49.800;8.596;2023-06-10T18:43:31;8.25;;;7.55;;
36303;SDS011;22335;49.800;8.596;2023-06-10T18:50:18;7.80;;;7.10;;
36303;SDS011;22335;49.800;8.596;2023-06-10T18:57:03;8.33;;;7.53;;
36303;SDS011;22335;49.800;8.596;2023-06-10T19:03:48;8.50;;;7.63;;
36303;SDS011;22335;49.800;8.596;2023-06-10T19:10:31;8.43;;;7.70;;
36303;SDS011;22335;49.800;8.596;2023-06-10T19:17:17;8.52;;;7.75;;
36303;SDS011;22335;49.800;8.596;2023-06-10T19:24:01;8.93;;;8.23;;
36303;SDS011;22335;49.800;8.596;2023-06-10T19:30:45;9.67;;;8.80;;
36303;SDS011;22335;49.800;8.596;2023-06-10T19:37:30;9.03;;;8.33;;
36303;SDS011;22335;49.800;8.596;2023-06-10T19:44:14;9.65;;;8.65;;
36303;SDS011;22335;49.800;8.596;2023-06-10T19:50:57;9.75;;;8.77;;
36303;SDS011;22335;49.800;8.596;2023-06-10T19:57:42;9.27;;;8.45;;
36303;SDS011;22335;49.800;8.596;2023-06-10T20:04:27;9.90;;;9.05;;
36303;SDS011;22335;49.800;8.596;2023-06-10T20:11:10;10.75;;;9.70;;
36303;SDS011;22335;49.800;8.596;2023-06-10T20:24:40;9.73;;;8.93;;
36303;SDS011;22335;49.800;8.596;2023-06-10T20:31:24;12.03;;;9.20;;
36303;SDS011;22335;49.800;8.596;2023-06-10T20:38:09;9.97;;;9.17;;
36303;SDS011;22335;49.800;8.596;2023-06-10T20:44:53;10.40;;;9.60;;
36303;SDS011;22335;49.800;8.596;2023-06-10T20:51:37;10.95;;;10.02;;
36303;SDS011;22335;49.800;8.596;2023-06-10T20:58:22;10.40;;;9.60;;
36303;SDS011;22335;49.800;8.596;2023-06-10T21:05:05;11.05;;;10.05;;
36303;SDS011;22335;49.800;8.596;2023-06-10T21:11:49;10.17;;;9.23;;
36303;SDS011;22335;49.800;8.596;2023-06-10T21:18:34;11.07;;;10.07;;
36303;SDS011;22335;49.800;8.596;2023-06-10T21:32:01;20.10;;;16.60;;
36303;SDS011;22335;49.800;8.596;2023-06-10T21:38:46;11.80;;;10.83;;
36303;SDS011;22335;49.800;8.596;2023-06-10T21:45:30;11.55;;;10.55;;
36303;SDS011;22335;49.800;8.596;2023-06-10T21:52:13;11.75;;;10.68;;
36303;SDS011;22335;49.800;8.596;2023-06-10T21:58:58;12.07;;;10.60;;
36303;SDS011;22335;49.800;8.596;2023-06-10T22:12:25;9.95;;;9.20;;
36303;SDS011;22335;49.800;8.596;2023-06-10T22:19:10;10.45;;;9.55;;
36303;SDS011;22335;49.800;8.596;2023-06-10T22:25:53;9.50;;;8.68;;
36303;SDS011;22335;49.800;8.596;2023-06-10T22:32:37;9.45;;;8.55;;
36303;SDS011;22335;49.800;8.596;2023-06-10T22:39:22;10.05;;;9.18;;
36303;SDS011;22335;49.800;8.596;2023-06-10T22:46:05;9.40;;;8.50;;
36303;SDS011;22335;49.800;8.596;2023-06-10T22:52:49;10.23;;;9.23;;
36303;SDS011;22335;49.800;8.596;2023-06-10T22:59:36;9.82;;;8.98;;
36303;SDS011;22335;49.800;8.596;2023-06-10T23:06:20;10.00;;;9.07;;
36303;SDS011;22335;49.800;8.596;2023-06-10T23:13:03;9.32;;;8.52;;
36303;SDS011;22335;49.800;8.596;2023-06-10T23:19:48;9.82;;;8.82;;
36303;SDS011;22335;49.800;8.596;2023-06-10T23:26:31;9.57;;;8.77;;
36303;SDS011;22335;49.800;8.596;2023-06-10T23:33:15;10.73;;;9.73;;
36303;SDS011;22335;49.800;8.596;2023-06-10T23:40:00;10.33;;;9.43;;
36303;SDS011;22335;49.800;8.596;2023-06-10T23:46:45;9.10;;;8.38;;
36303;SDS011;22335;49.800;8.596;2023-06-10T23:53:28;9.50;;;8.60;;
